OOCL California — VRWC8 — position and weather

sailwx.info

Track history (hours):
 
Tides and Currents Weather Stations Pressure Air Temp Water Temp Dewpoint Dewpoint Depression Visibility Wind Speed Wind Dir Waves Ship Positions

OOCL California

Last reported at 2017-Dec-07 12:00 UTC. Time now 2017-Dec-11 13:21 UTC.
Position N 05°48' E 084°42'.

Length 276 m; beam 40 m; draft 14 m.

Type: Ship. MMSI: 477704000.

Wind from 240 at 12 knots

Barometer 1003.0 mb
Air temperature 28.0 ° C
Visibility: greater than 10.8 NM
Dewpoint 22.4 ° C

Date/timePositionNaut miles runAvg speedWind from/ knotsBaromVisibWave heightAir tempDewpointWater temp
2017-Dec-07 12:00N 05°48' E 084°42'   240 / 121003.010.8 28.022.4
2017-Dec-04 10:31N 01°17' E 103°47'1 1.6
2017-Dec-04 10:01N 01°16' E 103°46'2 3.3
2017-Dec-04 09:31N 01°17' E 103°46'0 0.5
2017-Dec-04 09:00N 01°17' E 103°46'0 0.0
2017-Dec-04 08:30N 01°17' E 103°46'0 0.0
2017-Dec-04 08:00N 01°17' E 103°46'0 0.0
2017-Dec-04 07:30N 01°17' E 103°46'0 0.0
2017-Dec-04 07:00N 01°17' E 103°46'0 0.0
2017-Dec-04 06:30N 01°17' E 103°46'0 0.0
2017-Dec-04 06:00N 01°17' E 103°46'0 0.0
2017-Dec-04 05:30N 01°17' E 103°46'0 0.0
2017-Dec-04 05:00N 01°17' E 103°46'0 0.0
2017-Dec-04 04:30N 01°17' E 103°46'0 0.0
2017-Dec-04 04:00N 01°17' E 103°46'0 0.0
2017-Dec-04 03:30N 01°17' E 103°46'0 0.1
2017-Dec-04 02:57N 01°17' E 103°46'0 0.1
2017-Dec-04 02:30N 01°17' E 103°46'0 0.0
2017-Dec-04 02:00N 01°17' E 103°46'0 0.0
2017-Dec-04 01:30N 01°17' E 103°46'0 0.0
2017-Dec-04 01:00N 01°17' E 103°46'0 0.0
2017-Dec-04 00:30N 01°17' E 103°46'0 0.0
2017-Dec-04 00:00N 01°17' E 103°46'0 0.0
2017-Dec-03 23:27N 01°17' E 103°46'0 0.1
2017-Dec-03 23:00N 01°17' E 103°46'0 0.1
2017-Dec-03 22:24N 01°17' E 103°46'0 0.0
2017-Dec-03 22:00N 01°17' E 103°46'0 0.0
2017-Dec-03 21:30N 01°17' E 103°46'0 0.0
2017-Dec-03 21:00N 01°17' E 103°46'0 0.0
2017-Dec-03 20:24N 01°17' E 103°46'0 0.2
2017-Dec-03 20:00N 01°17' E 103°46'0 0.1
2017-Dec-03 19:27N 01°17' E 103°46'0 0.0
2017-Dec-03 19:00N 01°17' E 103°46'0 0.0
2017-Dec-03 18:30N 01°17' E 103°46'0 0.0
2017-Dec-03 18:00N 01°17' E 103°46'0 0.0
2017-Dec-03 17:30N 01°17' E 103°46'0 0.0
2017-Dec-03 17:00N 01°17' E 103°46'0 0.0
2017-Dec-03 16:30N 01°17' E 103°46'0 0.0
2017-Dec-03 16:00N 01°17' E 103°46'0 0.0
2017-Dec-03 15:30N 01°17' E 103°46'0 0.0
2017-Dec-03 14:54N 01°17' E 103°46'0 1.1
2017-Dec-03 14:31N 01°17' E 103°45'2 3.4
2017-Dec-03 14:00N 01°16' E 103°46'5 9.7
2017-Dec-03 13:30N 01°12' E 103°50'510.7
2017-Dec-03 13:01N 01°14' E 103°55'5 9.1
2017-Dec-03 12:30N 01°15' E 103°59'610.2
2017-Dec-03 11:57N 01°16' E 104°05'5 9.9
2017-Dec-03 11:27N 01°17' E 104°10'6 9.1
2017-Dec-03 10:50N 01°18' E 104°15'14413.3
2017-Dec-03 00:00N 03°24' E 105°24'   140 / 31003.010.8 19.6
2017-Nov-30 00:00N 21°18' E 114°00'308 8.3 310 / 201011.0 5.4 24.021.1
2017-Nov-28 10:44N 24°06' E 118°40'12619.2
2017-Nov-28 04:10N 25°36' E 120°17'  
Track history (hours):
 
Tides and Currents Weather Stations Pressure Air Temp Water Temp Dewpoint Dewpoint Depression Visibility Wind Speed Wind Dir Waves Ship Positions

OOCL California

Last reported at 2017-Dec-07 12:00 UTC. Time now 2017-Dec-11 13:21 UTC.
Position N 05°48' E 084°42'.

Length 276 m; beam 40 m; draft 14 m.

Type: Ship. MMSI: 477704000.

Wind from 240 at 12 knots

Barometer 1003.0 mb
Air temperature 28.0 ° C
Visibility: greater than 10.8 NM
Dewpoint 22.4 ° C

Date/timePositionNaut miles runAvg speedWind from/ knotsBaromVisibWave heightAir tempDewpointWater temp
2017-Dec-07 12:00N 05°48' E 084°42'   240 / 121003.010.8 28.022.4
2017-Dec-04 10:31N 01°17' E 103°47'1 1.6
2017-Dec-04 10:01N 01°16' E 103°46'2 3.3
2017-Dec-04 09:31N 01°17' E 103°46'0 0.5
2017-Dec-04 09:00N 01°17' E 103°46'0 0.0
2017-Dec-04 08:30N 01°17' E 103°46'0 0.0
2017-Dec-04 08:00N 01°17' E 103°46'0 0.0
2017-Dec-04 07:30N 01°17' E 103°46'0 0.0
2017-Dec-04 07:00N 01°17' E 103°46'0 0.0
2017-Dec-04 06:30N 01°17' E 103°46'0 0.0
2017-Dec-04 06:00N 01°17' E 103°46'0 0.0
2017-Dec-04 05:30N 01°17' E 103°46'0 0.0
2017-Dec-04 05:00N 01°17' E 103°46'0 0.0
2017-Dec-04 04:30N 01°17' E 103°46'0 0.0
2017-Dec-04 04:00N 01°17' E 103°46'0 0.0
2017-Dec-04 03:30N 01°17' E 103°46'0 0.1
2017-Dec-04 02:57N 01°17' E 103°46'0 0.1
2017-Dec-04 02:30N 01°17' E 103°46'0 0.0
2017-Dec-04 02:00N 01°17' E 103°46'0 0.0
2017-Dec-04 01:30N 01°17' E 103°46'0 0.0
2017-Dec-04 01:00N 01°17' E 103°46'0 0.0
2017-Dec-04 00:30N 01°17' E 103°46'0 0.0
2017-Dec-04 00:00N 01°17' E 103°46'0 0.0
2017-Dec-03 23:27N 01°17' E 103°46'0 0.1
2017-Dec-03 23:00N 01°17' E 103°46'0 0.1
2017-Dec-03 22:24N 01°17' E 103°46'0 0.0
2017-Dec-03 22:00N 01°17' E 103°46'0 0.0
2017-Dec-03 21:30N 01°17' E 103°46'0 0.0
2017-Dec-03 21:00N 01°17' E 103°46'0 0.0
2017-Dec-03 20:24N 01°17' E 103°46'0 0.2
2017-Dec-03 20:00N 01°17' E 103°46'0 0.1
2017-Dec-03 19:27N 01°17' E 103°46'0 0.0
2017-Dec-03 19:00N 01°17' E 103°46'0 0.0
2017-Dec-03 18:30N 01°17' E 103°46'0 0.0
2017-Dec-03 18:00N 01°17' E 103°46'0 0.0
2017-Dec-03 17:30N 01°17' E 103°46'0 0.0
2017-Dec-03 17:00N 01°17' E 103°46'0 0.0
2017-Dec-03 16:30N 01°17' E 103°46'0 0.0
2017-Dec-03 16:00N 01°17' E 103°46'0 0.0
2017-Dec-03 15:30N 01°17' E 103°46'0 0.0
2017-Dec-03 14:54N 01°17' E 103°46'0 1.1
2017-Dec-03 14:31N 01°17' E 103°45'2 3.4
2017-Dec-03 14:00N 01°16' E 103°46'5 9.7
2017-Dec-03 13:30N 01°12' E 103°50'510.7
2017-Dec-03 13:01N 01°14' E 103°55'5 9.1
2017-Dec-03 12:30N 01°15' E 103°59'610.2
2017-Dec-03 11:57N 01°16' E 104°05'5 9.9
2017-Dec-03 11:27N 01°17' E 104°10'6 9.1
2017-Dec-03 10:50N 01°18' E 104°15'14413.3
2017-Dec-03 00:00N 03°24' E 105°24'   140 / 31003.010.8 19.6
2017-Nov-30 00:00N 21°18' E 114°00'308 8.3 310 / 201011.0 5.4 24.021.1
2017-Nov-28 10:44N 24°06' E 118°40'12619.2
2017-Nov-28 04:10N 25°36' E 120°17'  

Dump ship's entire track history